Time,TemperatureF,DewpointF,PressureIn,WindDirection,WindDirectionDegrees,WindSpeedMPH,WindSpeedGustMPH,Humidity,HourlyPrecipIn,Conditions,Clouds,dailyrainin,SoftwareType,DateUTC
2013-05-06 00:00:00,54.6,51.4,29.95,North,1,2.0,3.0,89,0.00,,,0.00,Wunderground v.1.15,2013-05-06 05:00:00,
2013-05-06 00:06:00,54.5,51.3,29.95,WNW,302,2.0,6.0,89,0.00,,,0.00,Wunderground v.1.15,2013-05-06 05:06:00,
2013-05-06 00:12:00,54.3,51.4,29.95,NW,315,2.0,6.0,90,0.00,,,0.00,Wunderground v.1.15,2013-05-06 05:12:00,
2013-05-06 00:18:00,54.2,51.3,29.95,NW,318,2.0,6.0,90,0.00,,,0.00,Wunderground v.1.15,2013-05-06 05:18:00,
2013-05-06 00:24:00,54.1,51.2,29.95,NW,316,2.0,6.0,90,0.00,,,0.00,Wunderground v.1.15,2013-05-06 05:24:00,
2013-05-06 00:29:00,53.9,51.0,29.95,NW,310,2.0,6.0,90,0.00,,,0.00,Wunderground v.1.15,2013-05-06 05:29:00,
2013-05-06 00:36:00,53.7,50.8,29.95,NW,307,1.0,6.0,90,0.00,,,0.00,Wunderground v.1.15,2013-05-06 05:36:00,
2013-05-06 00:42:00,53.5,50.9,29.95,NW,311,1.0,3.0,91,0.00,,,0.00,Wunderground v.1.15,2013-05-06 05:42:00,
2013-05-06 00:48:00,53.4,50.8,29.95,NW,309,1.0,6.0,91,0.00,,,0.00,Wunderground v.1.15,2013-05-06 05:48:00,
2013-05-06 00:54:00,53.3,50.7,29.95,North,354,1.0,6.0,91,0.00,,,0.00,Wunderground v.1.15,2013-05-06 05:54:00,
2013-05-06 00:59:00,53.2,50.6,29.95,NW,308,1.0,6.0,91,0.00,,,0.00,Wunderground v.1.15,2013-05-06 05:59:00,
2013-05-06 01:06:00,53.2,50.6,29.95,NW,319,1.0,6.0,91,0.00,,,0.00,Wunderground v.1.15,2013-05-06 06:06:00,
2013-05-06 01:11:00,53.2,50.6,29.96,NE,43,1.0,6.0,91,0.00,,,0.00,Wunderground v.1.15,2013-05-06 06:11:00,
2013-05-06 01:18:00,53.4,50.5,29.96,NNW,343,1.0,6.0,90,0.00,,,0.00,Wunderground v.1.15,2013-05-06 06:18:00,
2013-05-06 01:23:00,53.3,50.4,29.95,North,356,1.0,6.0,90,0.00,,,0.00,Wunderground v.1.15,2013-05-06 06:23:00,
2013-05-06 01:30:00,53.3,50.4,29.95,NW,326,1.0,6.0,90,0.00,,,0.00,Wunderground v.1.15,2013-05-06 06:30:00,
2013-05-06 01:36:00,53.3,50.4,29.95,NW,322,2.0,6.0,90,0.00,,,0.00,Wunderground v.1.15,2013-05-06 06:36:00,
2013-05-06 01:42:00,53.2,50.3,29.95,NW,308,1.0,6.0,90,0.00,,,0.00,Wunderground v.1.15,2013-05-06 06:42:00,
2013-05-06 01:48:00,53.2,50.3,29.95,NW,321,1.0,6.0,90,0.00,,,0.00,Wunderground v.1.15,2013-05-06 06:48:00,
2013-05-06 01:53:00,53.2,50.3,29.95,WNW,295,1.0,6.0,90,0.00,,,0.00,Wunderground v.1.15,2013-05-06 06:53:00,
2013-05-06 02:00:00,53.2,50.3,29.95,NNW,333,2.0,2.0,90,0.00,,,0.00,Wunderground v.1.15,2013-05-06 07:00:00,
2013-05-06 02:06:00,53.1,50.2,29.95,North,6,1.0,6.0,90,0.00,,,0.00,Wunderground v.1.15,2013-05-06 07:06:00,
2013-05-06 02:12:00,53.0,50.1,29.95,NW,309,1.0,6.0,90,0.00,,,0.00,Wunderground v.1.15,2013-05-06 07:12:00,
2013-05-06 02:18:00,52.9,50.0,29.95,NW,313,1.0,6.0,90,0.00,,,0.00,Wunderground v.1.15,2013-05-06 07:18:00,
2013-05-06 02:23:00,52.7,49.8,29.95,NE,36,1.0,6.0,90,0.00,,,0.00,Wunderground v.1.15,2013-05-06 07:23:00,
2013-05-06 02:30:00,52.5,49.9,29.95,NW,310,1.0,6.0,91,0.00,,,0.00,Wunderground v.1.15,2013-05-06 07:30:00,
2013-05-06 02:35:00,52.4,49.8,29.95,NNW,335,1.0,6.0,91,0.00,,,0.00,Wunderground v.1.15,2013-05-06 07:35:00,
2013-05-06 02:42:00,52.2,49.7,29.95,NW,305,1.0,6.0,91,0.00,,,0.00,Wunderground v.1.15,2013-05-06 07:42:00,
2013-05-06 02:47:00,52.2,49.7,29.95,WNW,301,1.0,6.0,91,0.00,,,0.00,Wunderground v.1.15,2013-05-06 07:47:00,
2013-05-06 02:54:00,52.1,49.6,29.95,NW,326,1.0,6.0,91,0.00,,,0.00,Wunderground v.1.15,2013-05-06 07:54:00,
2013-05-06 03:00:00,52.1,49.6,29.94,NW,317,1.0,1.0,91,0.00,,,0.00,Wunderground v.1.15,2013-05-06 08:00:00,
2013-05-06 03:06:00,52.0,49.5,29.95,NW,309,1.0,6.0,91,0.00,,,0.00,Wunderground v.1.15,2013-05-06 08:06:00,
2013-05-06 03:12:00,52.0,49.5,29.95,NW,315,1.0,6.0,91,0.00,,,0.00,Wunderground v.1.15,2013-05-06 08:12:00,
2013-05-06 03:17:00,51.8,49.3,29.95,NW,308,0.0,6.0,91,0.00,,,0.00,Wunderground v.1.15,2013-05-06 08:17:00,
2013-05-06 03:24:00,51.7,49.2,29.95,NW,309,0.0,6.0,91,0.00,,,0.00,Wunderground v.1.15,2013-05-06 08:24:00,
2013-05-06 03:30:00,51.6,49.4,29.95,NNW,329,0.0,6.0,92,0.00,,,0.00,Wunderground v.1.15,2013-05-06 08:30:00,
2013-05-06 03:36:00,51.6,49.4,29.95,NW,315,1.0,6.0,92,0.00,,,0.00,Wunderground v.1.15,2013-05-06 08:36:00,
2013-05-06 03:42:00,51.5,49.3,29.95,NW,305,0.0,6.0,92,0.00,,,0.00,Wunderground v.1.15,2013-05-06 08:42:00,
2013-05-06 03:47:00,51.4,49.2,29.95,NW,315,0.0,6.0,92,0.00,,,0.00,Wunderground v.1.15,2013-05-06 08:47:00,
2013-05-06 03:54:00,51.4,49.2,29.95,NW,323,0.0,6.0,92,0.00,,,0.00,Wunderground v.1.15,2013-05-06 08:54:00,
2013-05-06 04:01:00,51.3,49.1,29.95,NW,322,1.0,6.0,92,0.00,,,0.00,Wunderground v.1.15,2013-05-06 09:01:00,
2013-05-06 04:08:00,51.2,49.0,29.95,NW,304,0.0,6.0,92,0.00,,,0.00,Wunderground v.1.15,2013-05-06 09:08:00,
2013-05-06 04:13:00,51.2,49.0,29.95,NW,311,0.0,6.0,92,0.00,,,0.00,Wunderground v.1.15,2013-05-06 09:13:00,
2013-05-06 04:20:00,51.0,48.8,29.95,North,355,0.0,6.0,92,0.00,,,0.00,Wunderground v.1.15,2013-05-06 09:20:00,
2013-05-06 04:25:00,50.9,48.9,29.95,North,4,0.0,6.0,93,0.00,,,0.00,Wunderground v.1.15,2013-05-06 09:25:00,
2013-05-06 04:31:00,50.9,48.9,29.95,WNW,295,0.0,6.0,93,0.00,,,0.00,Wunderground v.1.15,2013-05-06 09:31:00,
2013-05-06 04:38:00,50.8,48.8,29.95,WNW,295,0.0,6.0,93,0.00,,,0.00,Wunderground v.1.15,2013-05-06 09:38:00,
2013-05-06 04:43:00,50.7,48.7,29.95,NW,309,0.0,6.0,93,0.00,,,0.00,Wunderground v.1.15,2013-05-06 09:43:00,
2013-05-06 04:50:00,50.6,48.7,29.95,NW,311,0.0,6.0,93,0.00,,,0.00,Wunderground v.1.15,2013-05-06 09:50:00,
2013-05-06 04:55:00,50.6,48.7,29.95,ENE,69,0.0,6.0,93,0.00,,,0.00,Wunderground v.1.15,2013-05-06 09:55:00,
2013-05-06 05:02:00,50.6,48.7,29.95,ENE,65,0.0,6.0,93,0.00,,,0.00,Wunderground v.1.15,2013-05-06 10:02:00,
2013-05-06 05:08:00,50.5,48.6,29.95,ENE,65,0.0,6.0,93,0.00,,,0.00,Wunderground v.1.15,2013-05-06 10:08:00,
2013-05-06 05:14:00,50.3,48.4,29.95,ENE,65,0.0,6.0,93,0.00,,,0.00,Wunderground v.1.15,2013-05-06 10:14:00,
2013-05-06 05:20:00,50.2,48.3,29.95,ENE,65,0.0,6.0,93,0.00,,,0.00,Wunderground v.1.15,2013-05-06 10:20:00,
2013-05-06 05:25:00,50.2,48.3,29.96,ENE,64,0.0,6.0,93,0.00,,,0.00,Wunderground v.1.15,2013-05-06 10:25:00,
2013-05-06 05:32:00,50.3,48.4,29.96,North,360,0.0,6.0,93,0.00,,,0.00,Wunderground v.1.15,2013-05-06 10:32:00,
2013-05-06 05:38:00,50.2,48.3,29.96,NW,313,0.0,6.0,93,0.00,,,0.00,Wunderground v.1.15,2013-05-06 10:38:00,
2013-05-06 05:44:00,50.2,48.3,29.96,NW,313,0.0,6.0,93,0.00,,,0.00,Wunderground v.1.15,2013-05-06 10:44:00,
2013-05-06 05:49:00,50.2,48.3,29.96,NW,311,0.0,6.0,93,0.00,,,0.00,Wunderground v.1.15,2013-05-06 10:49:00,
2013-05-06 05:56:00,50.2,48.3,29.96,NW,312,0.0,6.0,93,0.00,,,0.00,Wunderground v.1.15,2013-05-06 10:56:00,
2013-05-06 06:02:00,50.2,48.3,29.97,NW,312,0.0,6.0,93,0.00,,,0.00,Wunderground v.1.15,2013-05-06 11:02:00,
2013-05-06 06:08:00,50.1,48.2,29.97,NW,312,0.0,6.0,93,0.00,,,0.00,Wunderground v.1.15,2013-05-06 11:08:00,
2013-05-06 06:14:00,50.0,48.1,29.97,NW,312,0.0,6.0,93,0.00,,,0.00,Wunderground v.1.15,2013-05-06 11:14:00,
2013-05-06 06:19:00,50.0,48.1,29.97,NW,311,0.0,6.0,93,0.00,,,0.00,Wunderground v.1.15,2013-05-06 11:19:00,
2013-05-06 06:26:00,49.9,48.0,29.97,NW,311,0.0,6.0,93,0.00,,,0.00,Wunderground v.1.15,2013-05-06 11:26:00,
2013-05-06 06:31:00,49.9,48.0,29.98,NW,311,0.0,6.0,93,0.00,,,0.00,Wunderground v.1.15,2013-05-06 11:31:00,
2013-05-06 06:38:00,50.0,48.1,29.97,NW,315,0.0,6.0,93,0.00,,,0.00,Wunderground v.1.15,2013-05-06 11:38:00,
2013-05-06 06:43:00,50.0,48.1,29.97,NW,315,0.0,6.0,93,0.00,,,0.00,Wunderground v.1.15,2013-05-06 11:43:00,
2013-05-06 06:50:00,50.1,48.2,29.98,NNE,29,0.0,6.0,93,0.00,,,0.00,Wunderground v.1.15,2013-05-06 11:50:00,
2013-05-06 06:56:00,50.3,48.4,29.98,NNE,16,0.0,6.0,93,0.00,,,0.00,Wunderground v.1.15,2013-05-06 11:56:00,
2013-05-06 07:02:00,50.4,48.5,29.98,NW,314,0.0,6.0,93,0.00,,,0.00,Wunderground v.1.15,2013-05-06 12:02:00,
2013-05-06 07:08:00,50.6,48.7,29.98,NW,306,0.0,6.0,93,0.00,,,0.00,Wunderground v.1.15,2013-05-06 12:08:00,
2013-05-06 07:13:00,50.8,48.6,29.98,NW,308,0.0,6.0,92,0.00,,,0.00,Wunderground v.1.15,2013-05-06 12:13:00,
2013-05-06 07:20:00,51.0,48.8,29.99,NE,41,0.0,6.0,92,0.00,,,0.00,Wunderground v.1.15,2013-05-06 12:20:00,
2013-05-06 07:26:00,51.1,48.6,29.99,NW,326,0.0,6.0,91,0.00,,,0.00,Wunderground v.1.15,2013-05-06 12:26:00,
2013-05-06 07:32:00,51.3,48.8,29.99,NW,316,0.0,6.0,91,0.00,,,0.00,Wunderground v.1.15,2013-05-06 12:32:00,
2013-05-06 07:38:00,51.5,49.0,29.99,NW,316,0.0,6.0,91,0.00,,,0.00,Wunderground v.1.15,2013-05-06 12:38:00,
2013-05-06 07:43:00,51.7,48.9,29.99,WNW,294,0.0,6.0,90,0.00,,,0.00,Wunderground v.1.15,2013-05-06 12:43:00,
2013-05-06 07:50:00,51.8,49.0,29.99,NW,308,0.0,6.0,90,0.00,,,0.00,Wunderground v.1.15,2013-05-06 12:50:00,
2013-05-06 07:55:00,52.1,49.3,29.99,NW,308,0.0,6.0,90,0.00,,,0.00,Wunderground v.1.15,2013-05-06 12:55:00,
2013-05-06 08:02:00,52.4,49.6,29.99,NNW,329,0.0,6.0,90,0.00,,,0.00,Wunderground v.1.15,2013-05-06 13:02:00,
2013-05-06 08:07:00,52.6,49.1,29.99,NW,314,0.0,6.0,88,0.00,,,0.00,Wunderground v.1.15,2013-05-06 13:07:00,
2013-05-06 08:14:00,52.8,49.6,29.99,NW,319,1.0,6.0,89,0.00,,,0.00,Wunderground v.1.15,2013-05-06 13:14:00,
2013-05-06 08:20:00,53.0,49.5,30.00,NW,315,0.0,6.0,88,0.00,,,0.00,Wunderground v.1.15,2013-05-06 13:20:00,
2013-05-06 08:26:00,53.4,49.9,29.99,NW,318,0.0,6.0,88,0.00,,,0.00,Wunderground v.1.15,2013-05-06 13:26:00,
2013-05-06 08:32:00,53.9,50.1,29.99,NW,319,0.0,6.0,87,0.00,,,0.00,Wunderground v.1.15,2013-05-06 13:32:00,
2013-05-06 08:37:00,54.3,50.2,30.00,NW,322,0.0,6.0,86,0.00,,,0.00,Wunderground v.1.15,2013-05-06 13:37:00,
2013-05-06 08:44:00,54.6,50.2,29.99,North,358,0.0,6.0,85,0.00,,,0.00,Wunderground v.1.15,2013-05-06 13:44:00,
2013-05-06 08:49:00,55.1,50.7,30.00,NW,316,0.0,6.0,85,0.00,,,0.00,Wunderground v.1.15,2013-05-06 13:49:00,
2013-05-06 08:56:00,55.5,50.4,30.00,NW,316,0.0,6.0,83,0.00,,,0.00,Wunderground v.1.15,2013-05-06 13:56:00,
2013-05-06 09:01:00,56.1,50.7,30.00,NW,304,0.0,6.0,82,0.00,,,0.00,Wunderground v.1.15,2013-05-06 14:01:00,
2013-05-06 09:08:00,56.6,51.2,30.00,NE,51,0.0,6.0,82,0.00,,,0.00,Wunderground v.1.15,2013-05-06 14:08:00,
2013-05-06 09:14:00,57.0,51.2,30.00,NW,315,0.0,6.0,81,0.00,,,0.00,Wunderground v.1.15,2013-05-06 14:14:00,
2013-05-06 09:20:00,57.1,51.0,30.00,West,280,0.0,6.0,80,0.00,,,0.00,Wunderground v.1.15,2013-05-06 14:20:00,
2013-05-06 09:26:00,57.4,50.9,30.00,NW,315,0.0,6.0,79,0.00,,,0.00,Wunderground v.1.15,2013-05-06 14:26:00,
2013-05-06 09:31:00,58.1,51.6,30.00,NE,39,0.0,6.0,79,0.00,,,0.00,Wunderground v.1.15,2013-05-06 14:31:00,
2013-05-06 09:38:00,58.6,51.4,30.00,West,273,0.0,6.0,77,0.00,,,0.00,Wunderground v.1.15,2013-05-06 14:38:00,
2013-05-06 09:44:00,59.0,51.8,30.00,WSW,253,0.0,6.0,77,0.00,,,0.00,Wunderground v.1.15,2013-05-06 14:44:00,
2013-05-06 09:50:00,59.4,51.8,30.00,NW,326,1.0,1.0,76,0.00,,,0.00,Wunderground v.1.15,2013-05-06 14:50:00,
2013-05-06 09:56:00,59.4,51.8,30.00,West,277,1.0,6.0,76,0.00,,,0.00,Wunderground v.1.15,2013-05-06 14:56:00,
2013-05-06 10:01:00,59.7,52.1,29.99,West,278,1.0,6.0,76,0.00,,,0.00,Wunderground v.1.15,2013-05-06 15:01:00,
2013-05-06 10:08:00,59.9,52.3,29.99,WNW,285,1.0,6.0,76,0.00,,,0.00,Wunderground v.1.15,2013-05-06 15:08:00,
2013-05-06 10:13:00,60.7,53.1,29.99,WNW,290,1.0,6.0,76,0.00,,,0.00,Wunderground v.1.15,2013-05-06 15:13:00,
2013-05-06 10:20:00,61.2,52.1,29.99,NE,46,0.0,6.0,72,0.00,,,0.00,Wunderground v.1.15,2013-05-06 15:20:00,
2013-05-06 10:25:00,61.2,52.1,29.99,NW,308,1.0,6.0,72,0.00,,,0.00,Wunderground v.1.15,2013-05-06 15:25:00,
2013-05-06 10:31:00,61.6,52.5,29.99,South,170,1.0,6.0,72,0.00,,,0.00,Wunderground v.1.15,2013-05-06 15:31:00,
2013-05-06 10:38:00,62.6,52.7,29.99,SSW,208,0.0,6.0,70,0.00,,,0.00,Wunderground v.1.15,2013-05-06 15:38:00,
2013-05-06 10:44:00,62.8,53.3,29.99,North,356,1.0,6.0,71,0.00,,,0.00,Wunderground v.1.15,2013-05-06 15:44:00,
2013-05-06 10:50:00,63.4,53.0,29.99,West,275,1.0,6.0,69,0.00,,,0.00,Wunderground v.1.15,2013-05-06 15:50:00,
2013-05-06 10:55:00,64.0,53.6,29.99,NW,305,1.0,6.0,69,0.00,,,0.00,Wunderground v.1.15,2013-05-06 15:55:00,
2013-05-06 11:02:00,64.3,53.9,29.99,West,274,1.0,6.0,69,0.00,,,0.00,Wunderground v.1.15,2013-05-06 16:02:00,
2013-05-06 11:08:00,64.3,53.5,29.99,SW,231,2.0,6.0,68,0.00,,,0.00,Wunderground v.1.15,2013-05-06 16:08:00,
2013-05-06 11:14:00,64.9,53.3,29.99,WSW,239,2.0,4.0,66,0.00,,,0.00,Wunderground v.1.15,2013-05-06 16:14:00,
2013-05-06 11:20:00,65.2,53.1,29.99,NW,311,2.0,6.0,65,0.00,,,0.00,Wunderground v.1.15,2013-05-06 16:20:00,
2013-05-06 11:25:00,65.4,52.9,29.99,WNW,284,1.0,6.0,64,0.00,,,0.00,Wunderground v.1.15,2013-05-06 16:25:00,
2013-05-06 11:32:00,65.8,53.7,29.98,NW,305,1.0,3.0,65,0.00,,,0.00,Wunderground v.1.15,2013-05-06 16:32:00,
2013-05-06 11:37:00,66.1,53.6,29.98,WNW,292,1.0,6.0,64,0.00,,,0.00,Wunderground v.1.15,2013-05-06 16:37:00,
2013-05-06 11:44:00,66.2,53.2,29.98,West,265,1.0,6.0,63,0.00,,,0.00,Wunderground v.1.15,2013-05-06 16:44:00,
2013-05-06 11:49:00,67.4,53.5,29.98,West,273,1.0,6.0,61,0.00,,,0.00,Wunderground v.1.15,2013-05-06 16:49:00,
2013-05-06 11:55:00,67.6,53.2,29.98,SW,228,2.0,6.0,60,0.00,,,0.00,Wunderground v.1.15,2013-05-06 16:55:00,
2013-05-06 12:02:00,67.6,54.1,29.98,WSW,249,2.0,6.0,62,0.00,,,0.00,Wunderground v.1.15,2013-05-06 17:02:00,
2013-05-06 12:07:00,67.8,53.4,29.98,West,270,2.0,6.0,60,0.00,,,0.00,Wunderground v.1.15,2013-05-06 17:07:00,
2013-05-06 12:14:00,67.8,52.5,29.97,WSW,256,2.0,6.0,58,0.00,,,0.00,Wunderground v.1.15,2013-05-06 17:14:00,
2013-05-06 12:19:00,67.9,53.0,29.97,West,267,2.0,6.0,59,0.00,,,0.00,Wunderground v.1.15,2013-05-06 17:19:00,
2013-05-06 12:26:00,68.4,53.0,29.97,WNW,298,2.0,6.0,58,0.00,,,0.00,Wunderground v.1.15,2013-05-06 17:26:00,
2013-05-06 12:32:00,69.2,53.3,29.97,West,278,2.0,4.0,57,0.00,,,0.00,Wunderground v.1.15,2013-05-06 17:32:00,
2013-05-06 12:38:00,68.8,52.0,29.97,WSW,240,3.0,6.0,55,0.00,,,0.00,Wunderground v.1.15,2013-05-06 17:38:00,
2013-05-06 12:44:00,68.8,52.5,29.97,SW,222,3.0,6.0,56,0.00,,,0.00,Wunderground v.1.15,2013-05-06 17:44:00,
2013-05-06 12:49:00,68.9,52.1,29.97,West,262,3.0,6.0,55,0.00,,,0.00,Wunderground v.1.15,2013-05-06 17:49:00,
2013-05-06 12:56:00,69.9,52.5,29.97,West,266,2.0,6.0,54,0.00,,,0.00,Wunderground v.1.15,2013-05-06 17:56:00,
2013-05-06 13:01:00,70.1,51.7,29.96,SSW,212,2.0,6.0,52,0.00,,,0.00,Wunderground v.1.15,2013-05-06 18:01:00,
2013-05-06 13:08:00,70.3,49.7,29.96,SE,135,3.0,6.0,48,0.00,,,0.00,Wunderground v.1.15,2013-05-06 18:08:00,
2013-05-06 13:14:00,70.8,50.1,29.96,WSW,245,2.0,6.0,48,0.00,,,0.00,Wunderground v.1.15,2013-05-06 18:14:00,
2013-05-06 13:19:00,71.9,48.2,29.96,SSW,203,1.0,6.0,43,0.00,,,0.00,Wunderground v.1.15,2013-05-06 18:19:00,
2013-05-06 13:26:00,72.7,50.1,29.96,WSW,252,1.0,6.0,45,0.00,,,0.00,Wunderground v.1.15,2013-05-06 18:26:00,
2013-05-06 13:31:00,72.5,48.1,29.96,SSW,210,1.0,2.0,42,0.00,,,0.00,Wunderground v.1.15,2013-05-06 18:31:00,
2013-05-06 13:38:00,73.4,47.6,29.96,NE,53,1.0,6.0,40,0.00,,,0.00,Wunderground v.1.15,2013-05-06 18:38:00,
2013-05-06 13:43:00,73.1,48.0,29.95,South,169,1.0,6.0,41,0.00,,,0.00,Wunderground v.1.15,2013-05-06 18:43:00,
2013-05-06 13:50:00,74.2,48.3,29.95,SSW,200,1.0,6.0,40,0.00,,,0.00,Wunderground v.1.15,2013-05-06 18:50:00,
2013-05-06 13:56:00,73.3,46.8,29.95,SW,232,2.0,6.0,39,0.00,,,0.00,Wunderground v.1.15,2013-05-06 18:56:00,
2013-05-06 14:02:00,73.3,47.5,29.95,SSW,200,2.0,6.0,40,0.00,,,0.00,Wunderground v.1.15,2013-05-06 19:02:00,
2013-05-06 14:08:00,73.8,47.3,29.95,WSW,252,2.0,6.0,39,0.00,,,0.00,Wunderground v.1.15,2013-05-06 19:08:00,
2013-05-06 14:13:00,73.5,47.7,29.95,ESE,113,2.0,6.0,40,0.00,,,0.00,Wunderground v.1.15,2013-05-06 19:13:00,
2013-05-06 14:20:00,74.2,47.6,29.94,NW,305,1.0,6.0,39,0.00,,,0.00,Wunderground v.1.15,2013-05-06 19:20:00,
2013-05-06 14:25:00,73.9,48.1,29.94,WNW,300,2.0,6.0,40,0.00,,,0.00,Wunderground v.1.15,2013-05-06 19:25:00,
2013-05-06 14:32:00,73.9,46.7,29.94,SSE,152,3.0,6.0,38,0.00,,,0.00,Wunderground v.1.15,2013-05-06 19:32:00,
2013-05-06 14:38:00,74.0,46.1,29.94,WNW,302,3.0,6.0,37,0.00,,,0.00,Wunderground v.1.15,2013-05-06 19:38:00,
2013-05-06 14:44:00,73.5,44.9,29.94,SW,235,4.0,6.0,36,0.00,,,0.00,Wunderground v.1.15,2013-05-06 19:44:00,
2013-05-06 14:50:00,73.9,46.7,29.94,West,269,3.0,3.0,38,0.00,,,0.00,Wunderground v.1.15,2013-05-06 19:50:00,
2013-05-06 14:55:00,74.5,46.5,29.93,WSW,255,2.0,6.0,37,0.00,,,0.00,Wunderground v.1.15,2013-05-06 19:55:00,
2013-05-06 15:02:00,74.9,47.6,29.93,WNW,300,2.0,5.0,38,0.00,,,0.00,Wunderground v.1.15,2013-05-06 20:02:00,
2013-05-06 15:07:00,73.9,45.3,29.93,NW,316,3.0,6.0,36,0.00,,,0.00,Wunderground v.1.15,2013-05-06 20:07:00,
2013-05-06 15:14:00,73.7,46.5,29.93,WSW,241,3.0,6.0,38,0.00,,,0.00,Wunderground v.1.15,2013-05-06 20:14:00,
2013-05-06 15:20:00,74.1,46.2,29.93,West,276,2.0,2.0,37,0.00,,,0.00,Wunderground v.1.15,2013-05-06 20:20:00,
2013-05-06 15:26:00,74.7,46.7,29.93,NW,305,2.0,6.0,37,0.00,,,0.00,Wunderground v.1.15,2013-05-06 20:26:00,
2013-05-06 15:32:00,74.3,45.6,29.92,WSW,256,3.0,6.0,36,0.00,,,0.00,Wunderground v.1.15,2013-05-06 20:32:00,
2013-05-06 15:37:00,74.1,46.2,29.92,NNW,331,3.0,6.0,37,0.00,,,0.00,Wunderground v.1.15,2013-05-06 20:37:00,
2013-05-06 15:44:00,75.2,47.1,29.92,NW,316,2.0,6.0,37,0.00,,,0.00,Wunderground v.1.15,2013-05-06 20:44:00,
2013-05-06 15:49:00,75.2,46.4,29.92,NW,322,2.0,2.0,36,0.00,,,0.00,Wunderground v.1.15,2013-05-06 20:49:00,
2013-05-06 15:56:00,75.0,47.0,29.92,West,259,2.0,6.0,37,0.00,,,0.00,Wunderground v.1.15,2013-05-06 20:56:00,
2013-05-06 16:02:00,75.0,47.7,29.92,West,264,3.0,6.0,38,0.00,,,0.00,Wunderground v.1.15,2013-05-06 21:02:00,
2013-05-06 16:08:00,74.9,46.9,29.92,NE,37,3.0,6.0,37,0.00,,,0.00,Wunderground v.1.15,2013-05-06 21:08:00,
2013-05-06 16:14:00,74.8,47.5,29.91,WNW,302,2.0,6.0,38,0.00,,,0.00,Wunderground v.1.15,2013-05-06 21:14:00,
2013-05-06 16:19:00,74.5,47.2,29.91,NNW,333,4.0,4.0,38,0.00,,,0.00,Wunderground v.1.15,2013-05-06 21:19:00,
2013-05-06 16:26:00,74.8,46.8,29.91,SW,233,4.0,6.0,37,0.00,,,0.00,Wunderground v.1.15,2013-05-06 21:26:00,
2013-05-06 16:31:00,74.9,46.9,29.91,WSW,252,2.0,6.0,37,0.00,,,0.00,Wunderground v.1.15,2013-05-06 21:31:00,
2013-05-06 16:38:00,74.8,46.8,29.91,WNW,302,2.0,6.0,37,0.00,,,0.00,Wunderground v.1.15,2013-05-06 21:38:00,
2013-05-06 16:43:00,74.9,46.1,29.91,NE,49,2.0,6.0,36,0.00,,,0.00,Wunderground v.1.15,2013-05-06 21:43:00,
2013-05-06 16:50:00,75.2,48.5,29.91,NW,313,2.0,2.0,39,0.00,,,0.00,Wunderground v.1.15,2013-05-06 21:50:00,
2013-05-06 16:56:00,75.0,47.0,29.91,West,281,3.0,6.0,37,0.00,,,0.00,Wunderground v.1.15,2013-05-06 21:56:00,
2013-05-06 17:01:00,75.4,47.3,29.91,NE,39,2.0,6.0,37,0.00,,,0.00,Wunderground v.1.15,2013-05-06 22:01:00,
2013-05-06 17:08:00,74.1,45.4,29.91,NNW,334,2.0,6.0,36,0.00,,,0.00,Wunderground v.1.15,2013-05-06 22:08:00,
2013-05-06 17:13:00,73.9,46.0,29.91,NW,316,2.0,6.0,37,0.00,,,0.00,Wunderground v.1.15,2013-05-06 22:13:00,
2013-05-06 17:20:00,74.6,45.9,29.91,NNE,12,1.0,6.0,36,0.00,,,0.00,Wunderground v.1.15,2013-05-06 22:20:00,
2013-05-06 17:26:00,75.0,46.2,29.91,NW,314,2.0,6.0,36,0.00,,,0.00,Wunderground v.1.15,2013-05-06 22:26:00,
2013-05-06 17:32:00,75.3,45.7,29.91,NW,320,1.0,6.0,35,0.00,,,0.00,Wunderground v.1.15,2013-05-06 22:32:00,
2013-05-06 17:38:00,75.8,45.4,29.91,NE,51,1.0,6.0,34,0.00,,,0.00,Wunderground v.1.15,2013-05-06 22:38:00,
2013-05-06 17:43:00,75.7,45.3,29.91,NNW,329,2.0,6.0,34,0.00,,,0.00,Wunderground v.1.15,2013-05-06 22:43:00,
2013-05-06 17:50:00,75.5,45.9,29.91,NW,309,1.0,1.0,35,0.00,,,0.00,Wunderground v.1.15,2013-05-06 22:50:00,
2013-05-06 17:55:00,75.5,45.9,29.91,WSW,256,2.0,6.0,35,0.00,,,0.00,Wunderground v.1.15,2013-05-06 22:55:00,
2013-05-06 18:02:00,75.9,45.5,29.91,East,96,1.0,6.0,34,0.00,,,0.00,Wunderground v.1.15,2013-05-06 23:02:00,
2013-05-06 18:07:00,75.8,45.4,29.91,West,276,1.0,6.0,34,0.00,,,0.00,Wunderground v.1.15,2013-05-06 23:07:00,
2013-05-06 18:13:00,75.1,44.8,29.91,NE,44,2.0,6.0,34,0.00,,,0.00,Wunderground v.1.15,2013-05-06 23:13:00,
2013-05-06 18:22:00,75.3,45.7,29.91,West,266,2.0,6.0,35,0.00,,,0.00,Wunderground v.1.15,2013-05-06 23:22:00,
2013-05-06 18:28:00,76.2,46.5,29.91,NW,308,1.0,6.0,35,0.00,,,0.00,Wunderground v.1.15,2013-05-06 23:28:00,
2013-05-06 18:34:00,75.6,46.0,29.90,NW,321,1.0,6.0,35,0.00,,,0.00,Wunderground v.1.15,2013-05-06 23:34:00,
2013-05-06 18:40:00,75.4,45.8,29.90,NW,313,2.0,6.0,35,0.00,,,0.00,Wunderground v.1.15,2013-05-06 23:40:00,
2013-05-06 18:45:00,75.1,44.8,29.90,North,11,1.0,6.0,34,0.00,,,0.00,Wunderground v.1.15,2013-05-06 23:45:00,
2013-05-06 18:52:00,74.8,46.8,29.90,NW,307,1.0,6.0,37,0.00,,,0.00,Wunderground v.1.15,2013-05-06 23:52:00,
2013-05-06 18:57:00,75.0,46.2,29.90,North,360,1.0,6.0,36,0.00,,,0.00,Wunderground v.1.15,2013-05-06 23:57:00,
2013-05-06 19:04:00,75.0,47.0,29.90,NW,326,1.0,6.0,37,0.00,,,0.00,Wunderground v.1.15,2013-05-07 00:04:00,
2013-05-06 19:09:00,74.4,47.8,29.90,WNW,287,2.0,2.0,39,0.00,,,0.00,Wunderground v.1.15,2013-05-07 00:09:00,
2013-05-06 19:15:00,74.3,49.1,29.90,NNW,345,2.0,6.0,41,0.00,,,0.00,Wunderground v.1.15,2013-05-07 00:15:00,
2013-05-06 19:22:00,73.6,48.4,29.91,NW,324,3.0,6.0,41,0.00,,,0.00,Wunderground v.1.15,2013-05-07 00:22:00,
2013-05-06 19:28:00,73.1,48.0,29.91,North,11,3.0,6.0,41,0.00,,,0.00,Wunderground v.1.15,2013-05-07 00:28:00,
2013-05-06 19:34:00,72.7,48.3,29.91,NNW,334,3.0,6.0,42,0.00,,,0.00,Wunderground v.1.15,2013-05-07 00:34:00,
2013-05-06 19:39:00,72.3,48.5,29.91,North,350,2.0,6.0,43,0.00,,,0.00,Wunderground v.1.15,2013-05-07 00:39:00,
2013-05-06 19:46:00,71.6,47.9,29.91,NNW,333,3.0,6.0,43,0.00,,,0.00,Wunderground v.1.15,2013-05-07 00:46:00,
2013-05-06 19:51:00,71.2,47.6,29.91,NW,319,2.0,6.0,43,0.00,,,0.00,Wunderground v.1.15,2013-05-07 00:51:00,
2013-05-06 19:58:00,70.9,47.9,29.91,NW,316,2.0,6.0,44,0.00,,,0.00,Wunderground v.1.15,2013-05-07 00:58:00,
2013-05-06 20:03:00,70.5,47.5,29.91,WNW,293,2.0,6.0,44,0.00,,,0.00,Wunderground v.1.15,2013-05-07 01:03:00,
2013-05-06 20:10:00,70.1,47.8,29.91,NW,308,1.0,1.0,45,0.00,,,0.00,Wunderground v.1.15,2013-05-07 01:10:00,
2013-05-06 20:16:00,69.7,47.4,29.91,NNW,337,1.0,6.0,45,0.00,,,0.00,Wunderground v.1.15,2013-05-07 01:16:00,
2013-05-06 20:22:00,69.3,47.6,29.91,NW,320,0.0,6.0,46,0.00,,,0.00,Wunderground v.1.15,2013-05-07 01:22:00,
2013-05-06 20:28:00,68.9,48.4,29.91,NW,308,0.0,6.0,48,0.00,,,0.00,Wunderground v.1.15,2013-05-07 01:28:00,
2013-05-06 20:33:00,68.4,48.5,29.91,NW,308,0.0,6.0,49,0.00,,,0.00,Wunderground v.1.15,2013-05-07 01:33:00,
2013-05-06 20:40:00,68.1,48.2,29.91,NE,40,0.0,6.0,49,0.00,,,0.00,Wunderground v.1.15,2013-05-07 01:40:00,
2013-05-06 20:46:00,67.6,48.3,29.91,NE,40,0.0,6.0,50,0.00,,,0.00,Wunderground v.1.15,2013-05-07 01:46:00,
2013-05-06 20:52:00,67.1,48.4,29.91,NE,39,0.0,6.0,51,0.00,,,0.00,Wunderground v.1.15,2013-05-07 01:52:00,
2013-05-06 20:58:00,66.7,48.5,29.92,NE,39,0.0,6.0,52,0.00,,,0.00,Wunderground v.1.15,2013-05-07 01:58:00,
2013-05-06 21:03:00,66.1,49.0,29.92,NE,40,0.0,6.0,54,0.00,,,0.00,Wunderground v.1.15,2013-05-07 02:03:00,
2013-05-06 21:10:00,65.6,48.5,29.92,NE,39,0.0,6.0,54,0.00,,,0.00,Wunderground v.1.15,2013-05-07 02:10:00,
2013-05-06 21:15:00,65.2,48.6,29.92,NE,39,0.0,6.0,55,0.00,,,0.00,Wunderground v.1.15,2013-05-07 02:15:00,
2013-05-06 21:22:00,65.1,49.0,29.92,NE,40,0.0,6.0,56,0.00,,,0.00,Wunderground v.1.15,2013-05-07 02:22:00,
2013-05-06 21:27:00,64.9,48.8,29.92,NE,39,0.0,6.0,56,0.00,,,0.00,Wunderground v.1.15,2013-05-07 02:27:00,
2013-05-06 21:34:00,64.6,48.5,29.92,NE,40,0.0,6.0,56,0.00,,,0.00,Wunderground v.1.15,2013-05-07 02:34:00,
2013-05-06 21:40:00,64.5,48.9,29.93,NE,39,0.0,6.0,57,0.00,,,0.00,Wunderground v.1.15,2013-05-07 02:40:00,
2013-05-06 21:46:00,64.5,48.9,29.93,NE,39,0.0,6.0,57,0.00,,,0.00,Wunderground v.1.15,2013-05-07 02:46:00,
2013-05-06 21:52:00,64.4,48.8,29.93,NE,39,0.0,6.0,57,0.00,,,0.00,Wunderground v.1.15,2013-05-07 02:52:00,
2013-05-06 21:57:00,64.2,49.6,29.93,NE,39,0.0,6.0,59,0.00,,,0.00,Wunderground v.1.15,2013-05-07 02:57:00,
2013-05-06 22:04:00,64.3,48.7,29.93,NE,39,0.0,6.0,57,0.00,,,0.00,Wunderground v.1.15,2013-05-07 03:04:00,
2013-05-06 22:10:00,64.6,49.0,29.93,NE,40,0.0,6.0,57,0.00,,,0.00,Wunderground v.1.15,2013-05-07 03:10:00,
2013-05-06 22:16:00,64.3,49.2,29.93,NE,39,0.0,6.0,58,0.00,,,0.00,Wunderground v.1.15,2013-05-07 03:16:00,
2013-05-06 22:22:00,64.1,49.5,29.93,NE,39,0.0,6.0,59,0.00,,,0.00,Wunderground v.1.15,2013-05-07 03:22:00,
2013-05-06 22:27:00,63.5,49.4,29.93,NE,40,0.0,6.0,60,0.00,,,0.00,Wunderground v.1.15,2013-05-07 03:27:00,
2013-05-06 22:34:00,63.0,49.3,29.93,NE,39,0.0,6.0,61,0.00,,,0.00,Wunderground v.1.15,2013-05-07 03:34:00,
2013-05-06 22:39:00,63.2,49.5,29.93,NE,46,0.0,6.0,61,0.00,,,0.00,Wunderground v.1.15,2013-05-07 03:39:00,
2013-05-06 22:46:00,62.9,49.2,29.93,NE,46,0.0,6.0,61,0.00,,,0.00,Wunderground v.1.15,2013-05-07 03:46:00,
2013-05-06 22:51:00,62.7,49.1,29.93,NE,46,0.0,6.0,61,0.00,,,0.00,Wunderground v.1.15,2013-05-07 03:51:00,
2013-05-06 22:57:00,62.6,49.0,29.93,NE,46,0.0,6.0,61,0.00,,,0.00,Wunderground v.1.15,2013-05-07 03:57:00,
2013-05-06 23:02:00,62.6,49.4,29.94,NE,46,0.0,6.0,62,0.00,,,0.00,Wunderground v.1.15,2013-05-07 04:02:00,
2013-05-06 23:04:00,62.6,49.4,29.94,West,276,0.0,6.0,62,0.00,,,0.00,Wunderground v.1.15,2013-05-07 04:04:00,
2013-05-06 23:06:00,62.6,49.0,29.93,West,277,0.0,6.0,61,0.00,,,0.00,Wunderground v.1.15,2013-05-07 04:06:00,
2013-05-06 23:08:00,62.5,49.3,29.94,West,277,0.0,6.0,62,0.00,,,0.00,Wunderground v.1.15,2013-05-07 04:08:00,
2013-05-06 23:13:00,62.2,49.0,29.94,West,277,0.0,6.0,62,0.00,,,0.00,Wunderground v.1.15,2013-05-07 04:13:00,
2013-05-06 23:20:00,62.4,49.2,29.94,NE,39,0.0,6.0,62,0.00,,,0.00,Wunderground v.1.15,2013-05-07 04:20:00,
2013-05-06 23:24:00,62.6,49.0,29.94,ENE,67,0.0,6.0,61,0.00,,,0.00,Wunderground v.1.15,2013-05-07 04:24:00,
2013-05-06 23:29:00,62.6,49.0,29.94,ENE,67,0.0,6.0,61,0.00,,,0.00,Wunderground v.1.15,2013-05-07 04:29:00,
2013-05-06 23:36:00,62.8,49.1,29.94,North,1,0.0,6.0,61,0.00,,,0.00,Wunderground v.1.15,2013-05-07 04:36:00,
2013-05-06 23:41:00,62.9,49.7,29.94,NE,46,0.0,6.0,62,0.00,,,0.00,Wunderground v.1.15,2013-05-07 04:41:00,
2013-05-06 23:48:00,62.6,49.8,29.94,NE,46,0.0,6.0,63,0.00,,,0.00,Wunderground v.1.15,2013-05-07 04:48:00,
2013-05-06 23:54:00,62.0,50.1,29.94,NE,46,0.0,6.0,65,0.00,,,0.00,Wunderground v.1.15,2013-05-07 04:54:00,